Sabahat Telli — TCSQ6 — position and weather

sailwx.info

Track history (hours):
 
Tides and Currents Weather Stations Pressure Air Temp Water Temp Dewpoint Dewpoint Depression Visibility Wind Speed Wind Dir Waves Ship Positions

Sabahat Telli

Last reported at 2017-Jul-11 19:28 UTC. Time now 2017-Jul-23 06:36 UTC.
Position N 40°59' E 028°60'.
Warning: this ship's position is 11 days out of date.

Length 99 m; draft 4.5 m.

Type: Tanker. MMSI: 271000961.

Date/timePositionNaut miles runAvg speedWind from/ knotsBaromVisibWave heightAir tempDewpointWater temp
2017-Jul-11 19:28N 40°59' E 028°60'6 1.0
2017-Jul-11 14:07N 40°57' E 028°53'4 9.1
2017-Jul-11 13:42N 40°53' E 028°53'212.3
2017-Jul-11 13:30N 40°51' E 028°54'713.0
2017-Jul-11 12:57N 40°50' E 029°03'612.9
2017-Jul-11 12:31N 40°47' E 029°10'612.9
2017-Jul-11 12:01N 40°45' E 029°18'611.2
2017-Jul-11 11:28N 40°45' E 029°26'611.5
2017-Jul-11 10:55N 40°45' E 029°34'7 0.3
2017-Jul-10 08:04N 40°44' E 029°25'113.2
2017-Jul-10 08:01N 40°44' E 029°24'510.0
2017-Jul-10 07:30N 40°44' E 029°17'713.5
2017-Jul-10 07:00N 40°46' E 029°08'612.7
2017-Jul-10 06:30N 40°48' E 029°01'712.8
2017-Jul-10 05:59N 40°54' E 028°56'  
Track history (hours):
 
Tides and Currents Weather Stations Pressure Air Temp Water Temp Dewpoint Dewpoint Depression Visibility Wind Speed Wind Dir Waves Ship Positions

Sabahat Telli

Last reported at 2017-Jul-11 19:28 UTC. Time now 2017-Jul-23 06:36 UTC.
Position N 40°59' E 028°60'.
Warning: this ship's position is 11 days out of date.

Length 99 m; draft 4.5 m.

Type: Tanker. MMSI: 271000961.

Date/timePositionNaut miles runAvg speedWind from/ knotsBaromVisibWave heightAir tempDewpointWater temp
2017-Jul-11 19:28N 40°59' E 028°60'6 1.0
2017-Jul-11 14:07N 40°57' E 028°53'4 9.1
2017-Jul-11 13:42N 40°53' E 028°53'212.3
2017-Jul-11 13:30N 40°51' E 028°54'713.0
2017-Jul-11 12:57N 40°50' E 029°03'612.9
2017-Jul-11 12:31N 40°47' E 029°10'612.9
2017-Jul-11 12:01N 40°45' E 029°18'611.2
2017-Jul-11 11:28N 40°45' E 029°26'611.5
2017-Jul-11 10:55N 40°45' E 029°34'7 0.3
2017-Jul-10 08:04N 40°44' E 029°25'113.2
2017-Jul-10 08:01N 40°44' E 029°24'510.0
2017-Jul-10 07:30N 40°44' E 029°17'713.5
2017-Jul-10 07:00N 40°46' E 029°08'612.7
2017-Jul-10 06:30N 40°48' E 029°01'712.8
2017-Jul-10 05:59N 40°54' E 028°56'  

Dump ship's entire track history